Time;durP1;ratioP1;P1;durP2;ratioP2;P2;SDS_P1;SDS_P2;PMS_P1;PMS_P2;Temp;Humidity;BMP_temperature;BMP_pressure;BME280_temperature;BME280_humidity;BME280_pressure;Samples;Min_cycle;Max_cycle;Signal;HPM_P1;HPM_P2
2021/04/16 00:00:16;;;;;;;0.10;0.10;;;4.40;99.90;;;;;;4967282;28;20194;-82
2021/04/16 00:02:43;;;;;;;0.07;0.07;;;4.50;99.90;;;;;;4974964;28;20711;-83
2021/04/16 00:05:09;;;;;;;0.20;0.20;;;4.50;99.90;;;;;;4975464;28;20656;-83
2021/04/16 00:07:34;;;;;;;0.20;0.20;;;4.50;99.90;;;;;;4992791;28;20190;-82
2021/04/16 00:10:00;;;;;;;0.10;0.10;;;4.70;99.90;;;;;;4975082;28;20179;-83
2021/04/16 00:12:26;;;;;;;0.00;0.00;;;4.80;99.90;;;;;;4984226;28;20209;-83
2021/04/16 00:14:52;;;;;;;0.20;0.20;;;4.70;99.90;;;;;;4994059;28;20190;-83
2021/04/16 00:17:18;;;;;;;0.00;0.00;;;4.90;99.90;;;;;;4979378;28;20671;-82
2021/04/16 00:19:43;;;;;;;0.10;0.10;;;4.90;99.90;;;;;;4976995;28;20222;-82
2021/04/16 00:22:09;;;;;;;0.10;0.10;;;5.10;99.90;;;;;;4972872;28;20194;-83
2021/04/16 00:24:35;;;;;;;0.20;0.20;;;5.20;99.90;;;;;;5000072;28;20194;-82
2021/04/16 00:27:01;;;;;;;0.10;0.10;;;5.20;99.90;;;;;;4996443;28;20555;-82
2021/04/16 00:29:27;;;;;;;0.20;0.20;;;5.20;99.90;;;;;;4976408;28;20263;-83
2021/04/16 00:31:55;;;;;;;0.10;0.10;;;5.20;99.90;;;;;;4995979;28;20278;-83
2021/04/16 00:34:22;;;;;;;0.10;0.10;;;5.10;99.90;;;;;;4979228;28;20187;-82
2021/04/16 00:36:48;;;;;;;0.00;0.00;;;5.20;99.90;;;;;;4996572;28;20187;-83
2021/04/16 00:39:14;;;;;;;0.30;0.30;;;5.20;99.90;;;;;;4965712;28;20186;-83
2021/04/16 00:41:41;;;;;;;0.10;0.10;;;5.30;99.90;;;;;;4978224;28;20237;-83
2021/04/16 00:44:06;;;;;;;0.53;0.37;;;5.30;99.90;;;;;;4996350;28;20209;-83
2021/04/16 00:46:44;;;;;;;0.20;0.20;;;5.30;99.90;;;;;;4978903;28;20615;-82
2021/04/16 00:49:15;;;;;;;0.13;0.13;;;5.30;99.90;;;;;;4977061;28;20184;-83
2021/04/16 00:51:44;;;;;;;0.07;0.07;;;5.30;99.90;;;;;;4995684;28;20250;-82
2021/04/16 00:54:15;;;;;;;0.20;0.20;;;5.20;99.90;;;;;;4995953;28;20214;-85
2021/04/16 00:56:41;;;;;;;0.20;0.20;;;5.10;99.90;;;;;;4996185;28;20183;-86
2021/04/16 00:59:07;;;;;;;0.10;0.10;;;5.20;99.90;;;;;;4978252;28;20218;-84
2021/04/16 01:01:32;;;;;;;0.10;0.10;;;5.10;99.90;;;;;;4977737;28;20234;-83
2021/04/16 01:03:58;;;;;;;0.00;0.00;;;5.00;99.90;;;;;;4995827;28;20206;-82
2021/04/16 01:06:24;;;;;;;0.60;0.53;;;5.00;99.90;;;;;;4995842;28;20206;-83
2021/04/16 01:08:51;;;;;;;0.20;0.20;;;5.00;99.90;;;;;;4995041;28;20662;-82
2021/04/16 01:11:18;;;;;;;0.40;0.40;;;5.00;99.90;;;;;;5004389;28;20192;-83
2021/04/16 01:13:44;;;;;;;0.00;0.00;;;5.00;99.90;;;;;;4995887;28;20200;-83
2021/04/16 01:16:14;;;;;;;0.20;0.20;;;5.00;99.90;;;;;;4995556;28;20653;-83
2021/04/16 01:18:44;;;;;;;0.10;0.10;;;5.00;99.90;;;;;;4995684;28;20176;-83
2021/04/16 01:21:13;;;;;;;0.00;0.00;;;5.10;99.90;;;;;;4995016;28;20199;-83
2021/04/16 01:24:03;;;;;;;0.20;0.20;;;5.00;99.90;;;;;;5003073;28;20232;-83
2021/04/16 01:26:36;;;;;;;0.40;0.40;;;5.10;99.90;;;;;;4993230;28;20627;-82
2021/04/16 01:29:01;;;;;;;0.10;0.10;;;5.10;99.90;;;;;;4995789;28;20187;-83
2021/04/16 01:31:28;;;;;;;0.37;0.27;;;5.10;99.90;;;;;;4977319;28;20187;-83
2021/04/16 01:33:55;;;;;;;0.10;0.10;;;5.10;99.90;;;;;;4994843;28;20207;-83
2021/04/16 01:36:30;;;;;;;0.20;0.20;;;5.00;99.90;;;;;;4987016;28;20668;-83
2021/04/16 01:38:57;;;;;;;0.30;0.30;;;4.90;99.90;;;;;;4980364;28;20198;-83
2021/04/16 01:41:26;;;;;;;0.20;0.20;;;4.90;99.90;;;;;;4969909;28;20210;-83
2021/04/16 01:44:04;;;;;;;0.30;0.30;;;5.00;99.90;;;;;;4994763;28;20289;-83
2021/04/16 01:46:45;;;;;;;1.50;0.10;;;4.90;99.90;;;;;;4977921;28;20555;-83
2021/04/16 01:49:10;;;;;;;0.20;0.20;;;4.90;99.90;;;;;;4977483;28;20233;-83
2021/04/16 01:51:36;;;;;;;0.10;0.10;;;4.80;99.90;;;;;;4976754;28;20191;-83
2021/04/16 01:54:25;;;;;;;0.80;0.43;;;4.80;99.90;;;;;;4977262;28;20292;-83
2021/04/16 01:56:55;;;;;;;0.10;0.10;;;4.80;99.90;;;;;;4994990;28;20548;-83
2021/04/16 01:59:28;;;;;;;0.10;0.10;;;4.80;99.90;;;;;;4977202;28;20186;-83
2021/04/16 02:01:54;;;;;;;1.07;0.40;;;4.80;99.90;;;;;;4976780;28;20212;-83
2021/04/16 02:04:21;;;;;;;0.30;0.30;;;4.80;99.90;;;;;;4976781;28;20684;-83
2021/04/16 02:06:47;;;;;;;0.30;0.30;;;4.90;99.90;;;;;;4977090;28;20256;-83
2021/04/16 02:09:16;;;;;;;0.07;0.03;;;4.80;99.90;;;;;;4989593;28;20188;-83
2021/04/16 02:11:43;;;;;;;1.07;0.23;;;4.80;99.90;;;;;;4985767;28;20281;-83
2021/04/16 02:14:11;;;;;;;0.00;0.00;;;4.80;99.90;;;;;;4977295;28;20212;-83
2021/04/16 02:16:37;;;;;;;0.20;0.20;;;4.80;99.90;;;;;;4977440;28;20231;-83
2021/04/16 02:19:04;;;;;;;0.17;0.13;;;4.70;99.90;;;;;;4976958;28;20183;-83
2021/04/16 02:21:30;;;;;;;0.23;0.23;;;4.70;99.90;;;;;;4976591;28;20260;-83
2021/04/16 02:23:56;;;;;;;0.20;0.20;;;4.70;99.90;;;;;;5013118;28;20597;-83
2021/04/16 02:26:22;;;;;;;1.63;0.50;;;4.70;99.90;;;;;;4997037;28;20190;-83
2021/04/16 02:28:48;;;;;;;0.10;0.10;;;4.70;99.90;;;;;;4994090;28;20182;-83
2021/04/16 02:31:13;;;;;;;0.20;0.20;;;4.70;99.90;;;;;;4976536;28;20185;-82
2021/04/16 02:33:39;;;;;;;0.30;0.30;;;4.60;99.90;;;;;;4977004;28;20589;-83
2021/04/16 02:36:06;;;;;;;0.20;0.20;;;4.70;99.90;;;;;;4976903;28;20223;-82
2021/04/16 02:38:32;;;;;;;0.17;0.13;;;4.60;99.90;;;;;;4972453;28;20179;-83
2021/04/16 02:40:57;;;;;;;0.57;0.23;;;4.50;99.90;;;;;;4993359;28;20204;-83
2021/04/16 02:43:23;;;;;;;0.23;0.23;;;4.50;99.90;;;;;;4976565;28;20569;-83
2021/04/16 02:45:48;;;;;;;0.10;0.10;;;4.50;99.90;;;;;;4976721;28;20180;-83
2021/04/16 02:48:14;;;;;;;0.20;0.20;;;4.50;99.90;;;;;;4994181;28;20184;-83
2021/04/16 02:50:40;;;;;;;0.10;0.10;;;4.50;99.90;;;;;;4972170;28;20207;-83
2021/04/16 02:53:05;;;;;;;0.10;0.10;;;4.50;99.90;;;;;;4967395;28;20214;-83
2021/04/16 02:55:31;;;;;;;0.30;0.30;;;4.50;99.90;;;;;;4993959;28;20269;-83
2021/04/16 02:57:56;;;;;;;0.10;0.10;;;4.40;99.90;;;;;;4976494;28;20190;-83
2021/04/16 03:00:28;;;;;;;0.20;0.20;;;4.40;99.90;;;;;;4993534;28;20181;-82
2021/04/16 03:02:55;;;;;;;0.10;0.10;;;4.50;99.90;;;;;;4975865;28;20272;-83
2021/04/16 03:05:21;;;;;;;0.10;0.10;;;4.40;99.90;;;;;;4976087;28;20584;-83
2021/04/16 03:07:46;;;;;;;0.20;0.20;;;4.40;99.90;;;;;;4976169;28;20189;-83
2021/04/16 03:10:16;;;;;;;0.63;0.30;;;4.50;99.90;;;;;;4977005;28;20187;-83
2021/04/16 03:12:41;;;;;;;0.10;0.10;;;4.40;99.90;;;;;;4981129;28;20683;-83
2021/04/16 03:15:08;;;;;;;1.70;0.57;;;4.40;99.90;;;;;;4976097;28;20221;-83
2021/04/16 03:17:34;;;;;;;0.30;0.30;;;4.30;99.90;;;;;;4993565;28;20277;-83
2021/04/16 03:20:07;;;;;;;0.17;0.17;;;4.30;99.90;;;;;;4975838;28;20178;-83
2021/04/16 03:22:33;;;;;;;0.67;0.27;;;4.20;99.90;;;;;;4982587;28;20212;-83
2021/04/16 03:24:59;;;;;;;0.30;0.30;;;4.30;99.90;;;;;;4993566;28;20550;-82
2021/04/16 03:27:25;;;;;;;0.10;0.10;;;4.20;99.90;;;;;;4993532;28;20208;-83
2021/04/16 03:29:51;;;;;;;0.20;0.20;;;4.20;99.90;;;;;;4969826;28;20598;-82
2021/04/16 03:32:16;;;;;;;0.20;0.10;;;4.20;99.90;;;;;;4968219;28;20209;-83
2021/04/16 03:34:42;;;;;;;0.10;0.10;;;4.20;99.90;;;;;;4993321;28;20205;-82
2021/04/16 03:37:07;;;;;;;0.20;0.20;;;4.20;99.90;;;;;;4993769;28;20302;-83
2021/04/16 03:39:33;;;;;;;0.10;0.10;;;4.20;99.90;;;;;;4975676;28;20548;-83
2021/04/16 03:41:59;;;;;;;0.17;0.17;;;4.20;99.90;;;;;;4992558;28;20336;-83
2021/04/16 03:44:24;;;;;;;0.30;0.30;;;4.20;99.90;;;;;;4975806;28;20192;-83
2021/04/16 03:46:50;;;;;;;0.20;0.20;;;4.20;99.90;;;;;;4972869;28;20193;-83
2021/04/16 03:49:15;;;;;;;0.10;0.10;;;4.30;99.90;;;;;;4970404;28;20184;-83
2021/04/16 03:52:00;;;;;;;0.20;0.20;;;4.20;99.90;;;;;;4973936;28;20285;-83
2021/04/16 03:54:27;;;;;;;0.40;0.20;;;4.20;99.90;;;;;;4988556;28;20264;-83
2021/04/16 03:56:53;;;;;;;0.20;0.20;;;4.20;99.90;;;;;;4999801;28;20653;-82
2021/04/16 03:59:21;;;;;;;0.30;0.30;;;4.30;99.90;;;;;;4998948;28;20200;-83
2021/04/16 04:01:47;;;;;;;0.50;0.47;;;4.20;99.90;;;;;;4981637;28;20210;-83
2021/04/16 04:04:13;;;;;;;0.40;0.40;;;4.20;99.90;;;;;;4999857;28;20209;-83
2021/04/16 04:06:38;;;;;;;0.10;0.10;;;4.20;99.90;;;;;;4980459;28;20203;-83
2021/04/16 04:09:05;;;;;;;0.20;0.20;;;4.20;99.90;;;;;;4982083;28;20214;-83
2021/04/16 04:11:31;;;;;;;0.20;0.20;;;4.20;99.90;;;;;;4984245;28;20185;-83
2021/04/16 04:13:58;;;;;;;0.10;0.10;;;4.20;99.90;;;;;;4982573;28;20242;-82
2021/04/16 04:16:24;;;;;;;0.37;0.37;;;4.20;99.90;;;;;;4998841;28;20181;-83
2021/04/16 04:18:50;;;;;;;0.03;0.03;;;4.20;99.90;;;;;;4981985;28;20184;-83
2021/04/16 04:21:15;;;;;;;0.20;0.20;;;4.20;99.90;;;;;;4998939;28;20221;-83
2021/04/16 04:23:41;;;;;;;0.20;0.20;;;4.20;99.90;;;;;;5002238;28;20282;-83
2021/04/16 04:26:06;;;;;;;0.10;0.10;;;4.30;99.90;;;;;;4977225;28;20177;-83
2021/04/16 04:28:32;;;;;;;0.10;0.10;;;4.20;99.90;;;;;;4969465;28;20634;-83
2021/04/16 04:30:57;;;;;;;9.10;0.30;;;4.30;99.90;;;;;;4997929;28;20191;-82
2021/04/16 04:33:23;;;;;;;1.97;0.17;;;4.30;99.90;;;;;;5001545;28;20290;-82
2021/04/16 04:35:49;;;;;;;0.10;0.10;;;4.40;99.90;;;;;;4983082;28;20182;-82
2021/04/16 04:38:15;;;;;;;0.13;0.13;;;4.40;99.90;;;;;;4999902;28;20264;-82
2021/04/16 04:40:40;;;;;;;0.20;0.20;;;4.40;99.90;;;;;;4992705;28;20210;-82
2021/04/16 04:43:07;;;;;;;0.00;0.00;;;4.40;99.90;;;;;;4999387;28;20199;-81
2021/04/16 04:45:32;;;;;;;0.10;0.10;;;4.50;99.90;;;;;;4979508;28;20188;-82
2021/04/16 04:47:59;;;;;;;0.57;0.57;;;4.40;99.90;;;;;;4981928;28;20181;-86
2021/04/16 04:50:25;;;;;;;0.60;0.33;;;4.50;99.90;;;;;;4982026;28;20189;-85
2021/04/16 04:52:53;;;;;;;0.00;0.00;;;4.50;99.90;;;;;;4981226;28;20218;-86
2021/04/16 04:55:22;;;;;;;0.10;0.10;;;4.60;99.90;;;;;;4997104;28;20176;-86
2021/04/16 04:57:48;;;;;;;2.30;0.50;;;4.50;99.90;;;;;;4995504;28;20248;-86
2021/04/16 05:00:15;;;;;;;0.10;0.10;;;4.60;99.90;;;;;;4979582;28;20651;-83
2021/04/16 05:02:41;;;;;;;0.40;0.40;;;4.60;99.90;;;;;;4985593;28;20213;-83
2021/04/16 05:05:08;;;;;;;0.20;0.20;;;4.70;99.90;;;;;;4995943;28;20586;-83
2021/04/16 05:07:33;;;;;;;0.10;0.10;;;4.70;99.90;;;;;;4978932;28;20187;-82
2021/04/16 05:09:59;;;;;;;0.10;0.10;;;4.80;99.90;;;;;;4986632;28;20191;-86
2021/04/16 05:12:25;;;;;;;0.30;0.30;;;4.80;99.90;;;;;;4981492;28;20224;-87
2021/04/16 05:14:50;;;;;;;0.20;0.20;;;4.80;99.90;;;;;;4978525;28;20193;-85
2021/04/16 05:17:16;;;;;;;0.10;0.10;;;4.80;99.90;;;;;;4989002;28;20742;-82
2021/04/16 05:19:41;;;;;;;0.10;0.10;;;4.80;99.90;;;;;;4999563;28;20741;-82
2021/04/16 05:22:07;;;;;;;0.93;0.40;;;4.80;99.90;;;;;;4976715;28;20204;-84
2021/04/16 05:24:41;;;;;;;0.40;0.20;;;4.70;99.90;;;;;;4989538;28;20267;-84
2021/04/16 05:27:09;;;;;;;0.00;0.00;;;4.80;99.90;;;;;;4978238;28;20190;-84
2021/04/16 05:29:40;;;;;;;0.17;0.17;;;4.80;99.90;;;;;;4991282;28;20191;-83
2021/04/16 05:32:07;;;;;;;0.37;0.30;;;4.90;99.90;;;;;;4977826;28;20190;-83
2021/04/16 05:34:33;;;;;;;0.10;0.10;;;4.90;99.90;;;;;;4979094;28;20290;-84
2021/04/16 05:36:59;;;;;;;0.10;0.10;;;4.90;99.90;;;;;;4979834;28;20644;-83
2021/04/16 05:39:25;;;;;;;0.33;0.20;;;4.80;99.90;;;;;;4993742;28;20180;-83
2021/04/16 05:41:50;;;;;;;0.30;0.30;;;4.80;99.90;;;;;;4996783;28;20226;-84
2021/04/16 05:44:16;;;;;;;0.20;0.20;;;4.80;99.90;;;;;;4983922;28;20691;-83
2021/04/16 05:46:42;;;;;;;0.10;0.10;;;4.90;99.90;;;;;;4982497;28;20168;-81
2021/04/16 05:49:08;;;;;;;0.20;0.20;;;4.90;99.90;;;;;;4981835;28;20189;-83
2021/04/16 05:51:35;;;;;;;0.10;0.10;;;5.00;99.90;;;;;;4977132;28;20187;-82
2021/04/16 05:54:01;;;;;;;0.10;0.10;;;5.00;99.90;;;;;;4981839;28;20227;-82
2021/04/16 05:56:26;;;;;;;3.70;0.43;;;4.90;99.90;;;;;;4997844;28;20258;-83
2021/04/16 05:58:52;;;;;;;0.23;0.23;;;4.90;99.90;;;;;;4980823;28;20644;-82
2021/04/16 06:01:17;;;;;;;0.13;0.13;;;4.80;99.90;;;;;;4979222;28;20192;-82
2021/04/16 06:03:45;;;;;;;0.10;0.10;;;4.90;99.90;;;;;;4979466;28;20290;-83
2021/04/16 06:06:11;;;;;;;0.40;0.40;;;5.10;99.90;;;;;;4993832;28;20688;-83
2021/04/16 06:08:37;;;;;;;0.10;0.10;;;5.00;99.90;;;;;;4981052;28;20276;-83
2021/04/16 06:11:10;;;;;;;0.10;0.10;;;4.90;99.90;;;;;;4992010;28;20280;-82
2021/04/16 06:13:37;;;;;;;0.10;0.10;;;5.00;99.90;;;;;;4990881;28;20751;-84
2021/04/16 06:16:03;;;;;;;0.40;0.23;;;5.10;99.90;;;;;;4994897;28;20262;-83
2021/04/16 06:18:29;;;;;;;0.60;0.60;;;5.20;99.90;;;;;;4989725;28;20237;-84
2021/04/16 06:20:55;;;;;;;0.80;0.43;;;5.10;99.90;;;;;;4970597;28;20332;-84
2021/04/16 06:23:21;;;;;;;0.10;0.10;;;4.90;99.90;;;;;;4980840;28;20253;-83
2021/04/16 06:25:47;;;;;;;0.20;0.20;;;5.00;99.90;;;;;;4975143;28;20266;-85
2021/04/16 06:28:15;;;;;;;0.20;0.20;;;5.20;99.90;;;;;;4994388;28;20751;-85
2021/04/16 06:30:43;;;;;;;0.63;0.63;;;5.10;99.90;;;;;;4975718;28;20188;-86
2021/04/16 06:33:43;;;;;;;0.97;0.97;;;5.20;99.90;;;;;;4972475;28;20217;-85
2021/04/16 06:36:12;;;;;;;0.13;0.13;;;5.30;99.90;;;;;;4992612;28;20215;-82
2021/04/16 06:38:41;;;;;;;0.10;0.10;;;5.20;99.90;;;;;;4976746;28;20181;-82
2021/04/16 06:41:16;;;;;;;0.10;0.10;;;5.20;99.90;;;;;;4970776;28;20731;-82
2021/04/16 06:43:45;;;;;;;0.23;0.23;;;5.20;99.90;;;;;;4970635;28;20203;-82
2021/04/16 06:46:16;;;;;;;0.10;0.10;;;5.20;99.90;;;;;;4994131;28;20181;-82
2021/04/16 06:48:41;;;;;;;0.10;0.10;;;5.30;99.90;;;;;;4976725;28;20182;-83
2021/04/16 06:51:09;;;;;;;0.10;0.10;;;5.30;99.90;;;;;;4976104;28;20233;-82
2021/04/16 06:53:50;;;;;;;0.10;0.10;;;5.20;99.90;;;;;;4993704;28;20214;-82
2021/04/16 06:56:22;;;;;;;0.60;0.30;;;5.20;99.90;;;;;;4976168;28;20251;-82
2021/04/16 06:59:16;;;;;;;0.30;0.30;;;5.40;99.90;;;;;;4976021;28;20185;-82
2021/04/16 07:01:56;;;;;;;0.10;0.10;;;5.30;99.90;;;;;;4979873;28;20221;-82
2021/04/16 07:04:22;;;;;;;0.30;0.30;;;5.40;99.90;;;;;;4993867;28;20526;-83
2021/04/16 07:06:55;;;;;;;0.20;0.20;;;5.60;99.90;;;;;;4993309;28;20240;-83
2021/04/16 07:09:32;;;;;;;0.20;0.20;;;5.60;99.90;;;;;;4978657;28;20189;-83
2021/04/16 07:15:36;;;;;;;0.20;0.20;;;5.60;99.90;;;;;;4993318;28;20648;-83
2021/04/16 07:18:03;;;;;;;0.10;0.10;;;5.70;99.90;;;;;;4973343;28;20679;-83
2021/04/16 07:20:30;;;;;;;0.10;0.10;;;5.70;99.90;;;;;;4993099;28;20374;-83
2021/04/16 07:22:56;;;;;;;0.00;0.00;;;5.70;99.90;;;;;;4970454;28;20235;-83
2021/04/16 07:25:31;;;;;;;0.20;0.20;;;5.90;99.90;;;;;;4966713;28;20181;-82
2021/04/16 07:28:00;;;;;;;0.33;0.23;;;5.80;99.90;;;;;;4982855;28;20187;-82
2021/04/16 07:30:30;;;;;;;0.10;0.10;;;5.90;99.90;;;;;;4993514;28;20266;-83
2021/04/16 07:33:42;;;;;;;0.10;0.10;;;6.00;99.90;;;;;;4991016;28;20212;-83
2021/04/16 07:36:41;;;;;;;0.10;0.10;;;6.10;99.90;;;;;;4976943;28;20189;-82
2021/04/16 07:39:17;;;;;;;0.40;0.23;;;6.30;99.90;;;;;;4992840;28;20198;-82
2021/04/16 07:42:08;;;;;;;0.00;0.00;;;6.50;99.90;;;;;;4971568;28;20230;-83
2021/04/16 07:44:36;;;;;;;0.10;0.10;;;6.70;99.90;;;;;;4985708;28;20275;-82
2021/04/16 07:47:13;;;;;;;0.00;0.00;;;6.70;99.90;;;;;;4975902;28;20198;-82
2021/04/16 07:49:54;;;;;;;0.10;0.10;;;6.50;99.90;;;;;;4976130;28;20215;-83
2021/04/16 07:52:22;;;;;;;0.10;0.10;;;6.70;99.90;;;;;;4974801;28;20210;-83
2021/04/16 07:55:09;;;;;;;0.00;0.00;;;6.50;99.90;;;;;;4993364;28;20180;-83
2021/04/16 07:57:38;;;;;;;0.00;0.00;;;6.60;99.90;;;;;;4979656;28;20190;-83
2021/04/16 08:00:25;;;;;;;0.10;0.10;;;6.60;99.90;;;;;;4994454;28;20190;-83
2021/04/16 08:03:12;;;;;;;0.10;0.10;;;6.40;99.90;;;;;;4980587;28;20574;-83
2021/04/16 08:05:52;;;;;;;0.07;0.07;;;6.50;99.90;;;;;;4991838;28;20211;-83
2021/04/16 08:08:20;;;;;;;0.20;0.20;;;6.50;99.90;;;;;;4990402;28;20183;-83
2021/04/16 08:10:51;;;;;;;0.00;0.00;;;6.70;99.90;;;;;;4998419;28;20196;-83
2021/04/16 08:13:19;;;;;;;0.00;0.00;;;6.80;99.90;;;;;;4973702;28;20326;-83
2021/04/16 08:15:52;;;;;;;0.00;0.00;;;7.10;99.90;;;;;;4975187;28;20191;-84
2021/04/16 08:18:32;;;;;;;0.03;0.03;;;7.30;99.90;;;;;;4973434;28;20730;-83
2021/04/16 08:21:12;;;;;;;0.10;0.10;;;7.60;99.90;;;;;;4974778;28;20227;-86
2021/04/16 08:23:53;;;;;;;0.23;0.23;;;7.30;99.90;;;;;;4990299;28;20219;-83
2021/04/16 08:26:39;;;;;;;0.20;0.20;;;7.50;99.90;;;;;;4980455;28;20207;-83
2021/04/16 08:29:29;;;;;;;0.10;0.10;;;7.60;99.90;;;;;;4972611;28;20222;-82
2021/04/16 08:32:09;;;;;;;4.37;0.40;;;7.40;99.90;;;;;;4962048;28;20193;-83
2021/04/16 08:34:42;;;;;;;0.23;0.20;;;7.20;99.90;;;;;;4991242;28;20188;-83
2021/04/16 08:37:15;;;;;;;0.30;0.30;;;7.10;99.90;;;;;;4977713;28;20195;-81
2021/04/16 08:39:44;;;;;;;0.30;0.30;;;7.10;99.90;;;;;;4976076;28;20207;-83
2021/04/16 08:42:27;;;;;;;0.20;0.20;;;7.40;99.90;;;;;;4979078;28;20199;-83
2021/04/16 08:45:02;;;;;;;0.10;0.10;;;7.50;99.90;;;;;;4998403;28;20207;-85
2021/04/16 08:47:42;;;;;;;0.13;0.10;;;8.00;99.90;;;;;;4979227;28;20202;-83
2021/04/16 08:50:08;;;;;;;0.10;0.10;;;7.80;99.90;;;;;;4988060;28;20180;-83
2021/04/16 08:53:06;;;;;;;0.10;0.10;;;8.10;99.90;;;;;;4961901;28;20212;-83
2021/04/16 08:55:39;;;;;;;0.10;0.10;;;7.90;99.90;;;;;;4974427;28;20191;-83
2021/04/16 09:01:29;;;;;;;0.20;0.20;;;8.10;99.90;;;;;;4993796;28;20218;-83
2021/04/16 09:04:11;;;;;;;0.87;0.33;;;8.20;99.90;;;;;;4995323;28;20675;-83
2021/04/16 09:06:36;;;;;;;0.13;0.13;;;8.40;99.90;;;;;;4991181;28;20668;-84
2021/04/16 09:09:05;;;;;;;0.30;0.30;;;8.20;99.90;;;;;;4999730;28;20262;-85
2021/04/16 09:11:46;;;;;;;0.10;0.10;;;8.60;99.90;;;;;;4987621;28;20243;-82
2021/04/16 09:14:23;;;;;;;0.33;0.33;;;8.40;99.90;;;;;;4991327;28;20276;-88
2021/04/16 09:16:57;;;;;;;0.27;0.27;;;8.70;99.90;;;;;;4984269;28;20238;-82
2021/04/16 09:19:28;;;;;;;0.17;0.17;;;9.30;99.90;;;;;;4983483;28;20215;-82
2021/04/16 09:22:03;;;;;;;0.17;0.17;;;9.00;99.90;;;;;;4982061;28;20583;-82
2021/04/16 09:24:46;;;;;;;0.53;0.20;;;9.40;99.90;;;;;;5000174;28;20206;-83
2021/04/16 09:27:25;;;;;;;2.20;0.93;;;8.80;99.90;;;;;;4993902;28;20241;-81
2021/04/16 09:29:57;;;;;;;0.13;0.13;;;8.80;99.90;;;;;;4997275;28;20190;-82
2021/04/16 09:32:51;;;;;;;0.93;0.83;;;8.40;99.90;;;;;;4981091;28;20209;-82
2021/04/16 09:35:19;;;;;;;0.03;0.03;;;8.30;99.90;;;;;;4980054;28;20177;-82
2021/04/16 09:37:47;;;;;;;0.10;0.10;;;8.20;99.90;;;;;;4992688;28;20547;-83
2021/04/16 09:40:19;;;;;;;0.20;0.20;;;8.10;99.90;;;;;;4980173;28;20553;-82
2021/04/16 09:42:50;;;;;;;0.10;0.10;;;8.30;99.90;;;;;;4979628;28;20290;-82
2021/04/16 09:45:35;;;;;;;0.00;0.00;;;8.30;99.90;;;;;;4990777;28;20187;-84
2021/04/16 09:48:04;;;;;;;0.20;0.20;;;8.70;99.90;;;;;;4986226;28;20186;-82
2021/04/16 09:50:34;;;;;;;0.00;0.00;;;8.80;99.90;;;;;;4978782;28;20191;-84
2021/04/16 09:53:22;;;;;;;0.30;0.30;;;8.70;99.90;;;;;;4977139;28;20208;-83
2021/04/16 09:56:08;;;;;;;0.10;0.10;;;9.00;99.90;;;;;;4978161;28;20615;-83
2021/04/16 09:59:10;;;;;;;0.10;0.10;;;9.40;99.90;;;;;;4964393;28;20212;-84
2021/04/16 10:02:14;;;;;;;0.10;0.10;;;9.10;99.90;;;;;;4985035;28;20241;-82
2021/04/16 10:05:06;;;;;;;0.00;0.00;;;9.00;99.90;;;;;;4987820;28;20544;-83
2021/04/16 10:07:35;;;;;;;0.10;0.10;;;8.70;99.90;;;;;;4974590;28;20188;-84
2021/04/16 10:10:06;;;;;;;0.10;0.10;;;9.50;99.90;;;;;;4992774;28;20641;-83
2021/04/16 10:12:33;;;;;;;0.10;0.10;;;9.50;99.90;;;;;;4985368;28;20199;-84
2021/04/16 10:15:13;;;;;;;0.17;0.17;;;9.60;99.90;;;;;;4977573;28;20567;-83
2021/04/16 10:17:53;;;;;;;0.10;0.10;;;9.90;99.90;;;;;;4977108;28;20564;-86
2021/04/16 10:20:18;;;;;;;2.30;0.20;;;9.70;99.90;;;;;;4987205;28;20264;-85
2021/04/16 10:22:44;;;;;;;0.10;0.10;;;9.50;99.90;;;;;;4994283;28;20691;-85
2021/04/16 10:40:15;;;;;;;0.10;0.10;;;9.40;99.90;;;;;;4985234;28;20244;-83
2021/04/16 10:43:41;;;;;;;0.10;0.10;;;9.60;99.90;;;;;;4991639;28;20214;-84
2021/04/16 12:38:44;;;;;;;0.13;0.13;;;9.50;99.90;;;;;;4990460;28;20258;-83
2021/04/16 12:41:29;;;;;;;0.20;0.20;;;9.70;99.90;;;;;;4977893;28;20260;-84
2021/04/16 12:43:56;;;;;;;0.10;0.10;;;10.00;99.90;;;;;;4995680;28;20205;-84
2021/04/16 12:46:28;;;;;;;0.00;0.00;;;10.10;99.90;;;;;;4989316;28;20687;-84
2021/04/16 12:48:53;;;;;;;0.10;0.10;;;10.60;99.90;;;;;;4978951;28;20200;-85
2021/04/16 12:51:19;;;;;;;0.20;0.20;;;10.40;99.90;;;;;;4978319;28;20185;-84
2021/04/16 12:53:44;;;;;;;0.10;0.10;;;10.80;99.90;;;;;;4979073;28;20208;-83
2021/04/16 12:56:14;;;;;;;0.10;0.10;;;10.20;99.90;;;;;;4990457;28;20206;-84
2021/04/16 12:58:42;;;;;;;0.10;0.10;;;9.80;99.90;;;;;;4978639;28;20229;-86
2021/04/16 13:01:15;;;;;;;0.33;0.30;;;9.80;99.90;;;;;;4978628;28;20564;-84
2021/04/16 13:03:41;;;;;;;0.10;0.10;;;9.90;99.90;;;;;;4993068;28;20203;-85
2021/04/16 13:06:24;;;;;;;0.47;0.10;;;10.20;99.90;;;;;;4995554;28;20229;-85
2021/04/16 13:08:50;;;;;;;0.20;0.17;;;9.50;99.90;;;;;;4999357;28;20209;-84
2021/04/16 13:11:26;;;;;;;0.40;0.30;;;9.40;99.90;;;;;;4979231;28;20637;-84
2021/04/16 13:13:52;;;;;;;0.10;0.10;;;9.70;99.90;;;;;;4988127;28;20260;-84
2021/04/16 13:16:18;;;;;;;0.00;0.00;;;9.80;99.90;;;;;;4978076;28;20222;-84
2021/04/16 13:18:47;;;;;;;0.30;0.30;;;9.90;99.90;;;;;;4978590;28;20289;-86
2021/04/16 13:21:34;;;;;;;0.10;0.10;;;9.90;99.90;;;;;;4995304;28;20207;-84
2021/04/16 13:24:01;;;;;;;0.20;0.20;;;9.60;99.90;;;;;;4970442;28;20239;-84
2021/04/16 13:26:27;;;;;;;0.10;0.10;;;9.80;99.90;;;;;;4973786;28;20213;-85
2021/04/16 13:28:54;;;;;;;0.20;0.20;;;9.60;99.90;;;;;;4978469;28;20225;-86
2021/04/16 13:31:21;;;;;;;0.17;0.10;;;9.40;99.90;;;;;;4994488;28;20188;-84
2021/04/16 13:33:48;;;;;;;0.23;0.10;;;9.40;99.90;;;;;;4977646;28;20242;-84
2021/04/16 13:36:24;;;;;;;0.10;0.10;;;9.20;99.90;;;;;;4977580;28;20193;-84
2021/04/16 13:38:50;;;;;;;0.30;0.30;;;8.80;99.90;;;;;;4977607;28;20184;-84
2021/04/16 13:41:16;;;;;;;0.10;0.10;;;9.10;99.90;;;;;;4976977;28;20265;-84
2021/04/16 13:43:42;;;;;;;0.10;0.10;;;9.10;99.90;;;;;;4994549;28;20205;-85
2021/04/16 13:46:14;;;;;;;0.03;0.03;;;9.50;99.90;;;;;;4980866;28;20174;-84
2021/04/16 13:48:40;;;;;;;0.07;0.07;;;9.70;99.90;;;;;;4994913;28;20185;-84
2021/04/16 13:51:05;;;;;;;0.37;0.10;;;10.10;99.90;;;;;;4969983;28;20244;-84
2021/04/16 13:53:31;;;;;;;0.60;0.60;;;9.50;99.90;;;;;;4965896;28;20215;-84
2021/04/16 13:55:56;;;;;;;0.20;0.20;;;9.70;99.90;;;;;;4980119;28;20185;-84
2021/04/16 13:58:22;;;;;;;0.10;0.10;;;9.30;99.90;;;;;;4992759;28;20211;-84
2021/04/16 14:01:18;;;;;;;0.10;0.10;;;9.10;99.90;;;;;;4994597;28;20189;-84
2021/04/16 14:03:46;;;;;;;0.10;0.10;;;9.00;99.90;;;;;;4968647;28;20265;-85
2021/04/16 14:06:22;;;;;;;1.10;0.33;;;9.00;99.90;;;;;;4977001;28;20201;-83
2021/04/16 14:08:51;;;;;;;0.10;0.10;;;8.70;99.90;;;;;;4980881;28;20181;-83
2021/04/16 14:11:17;;;;;;;0.07;0.07;;;8.60;99.90;;;;;;4997860;28;20642;-84
2021/04/16 14:13:43;;;;;;;0.00;0.00;;;8.80;99.90;;;;;;4986172;28;20209;-84
2021/04/16 14:16:13;;;;;;;0.20;0.20;;;8.50;99.90;;;;;;4994693;28;20239;-84
2021/04/16 14:18:53;;;;;;;0.10;0.10;;;8.40;99.90;;;;;;4975764;28;20665;-83
2021/04/16 14:21:20;;;;;;;0.10;0.10;;;8.30;99.90;;;;;;4992692;28;20211;-83
2021/04/16 14:24:33;;;;;;;0.10;0.10;;;8.30;99.90;;;;;;4976651;28;20235;-82
2021/04/16 14:26:59;;;;;;;1.23;1.23;;;8.20;99.90;;;;;;4976522;28;20188;-85
2021/04/16 14:29:26;;;;;;;0.10;0.10;;;8.10;99.90;;;;;;4993648;28;20238;-83
2021/04/16 14:31:52;;;;;;;0.20;0.10;;;8.00;99.90;;;;;;4976499;28;20197;-83
2021/04/16 14:34:21;;;;;;;0.30;0.30;;;8.20;99.90;;;;;;4975377;28;20220;-83
2021/04/16 14:36:47;;;;;;;0.10;0.10;;;8.10;99.90;;;;;;4999490;28;20184;-84
2021/04/16 14:39:14;;;;;;;0.23;0.20;;;8.10;99.90;;;;;;4994090;28;20671;-86
2021/04/16 14:41:40;;;;;;;0.20;0.20;;;8.20;99.90;;;;;;4976024;28;20583;-84
2021/04/16 14:44:14;;;;;;;0.10;0.10;;;8.30;99.90;;;;;;4993860;28;20294;-84
2021/04/16 14:46:40;;;;;;;0.03;0.03;;;8.70;99.90;;;;;;4994600;28;20214;-83
2021/04/16 14:49:06;;;;;;;0.00;0.00;;;8.70;99.90;;;;;;4991836;28;20327;-86
2021/04/16 14:51:31;;;;;;;0.20;0.20;;;9.30;99.90;;;;;;4995566;28;20261;-84
2021/04/16 14:54:05;;;;;;;0.10;0.10;;;9.50;99.90;;;;;;4985507;28;20216;-83
2021/04/16 14:56:31;;;;;;;0.10;0.10;;;9.20;99.90;;;;;;4978857;28;20192;-83
2021/04/16 14:59:01;;;;;;;0.20;0.20;;;9.30;99.90;;;;;;4979313;28;20343;-83
2021/04/16 15:01:29;;;;;;;0.50;0.50;;;9.20;99.90;;;;;;4995207;28;20706;-83
2021/04/16 15:03:56;;;;;;;0.10;0.10;;;9.30;99.90;;;;;;4978407;28;20204;-83
2021/04/16 15:06:29;;;;;;;0.27;0.27;;;9.30;99.90;;;;;;4972973;28;20234;-84
2021/04/16 15:09:05;;;;;;;0.00;0.00;;;9.40;99.90;;;;;;4987651;28;20655;-83
2021/04/16 15:11:46;;;;;;;0.40;0.40;;;9.60;99.90;;;;;;4995247;28;20219;-83
2021/04/16 15:14:15;;;;;;;0.10;0.10;;;9.40;99.90;;;;;;4985079;28;20214;-84
2021/04/16 15:16:51;;;;;;;0.20;0.20;;;9.50;99.90;;;;;;4995156;28;20190;-83
2021/04/16 15:19:26;;;;;;;0.20;0.20;;;9.30;99.90;;;;;;4976148;28;20246;-84
2021/04/16 15:21:54;;;;;;;0.10;0.10;;;9.10;99.90;;;;;;4963509;28;20630;-83
2021/04/16 15:24:19;;;;;;;0.10;0.10;;;9.40;99.90;;;;;;4993001;28;20214;-84
2021/04/16 15:26:45;;;;;;;0.10;0.10;;;9.70;99.90;;;;;;4973601;28;20198;-83
2021/04/16 15:29:20;;;;;;;0.20;0.20;;;9.90;99.90;;;;;;4991420;28;20177;-84